createdAt,value
2022-09-12T00:02:05.971Z,101336.72
2022-09-12T00:04:34.084Z,101312.38
2022-09-12T00:07:02.085Z,101304.03
2022-09-12T00:09:30.052Z,101324.03
2022-09-12T00:12:00.781Z,101333.78
2022-09-12T00:14:29.937Z,101334.81
2022-09-12T00:16:59.474Z,101328.97
2022-09-12T00:19:30.324Z,101333.94
2022-09-12T00:21:58.406Z,101333.94
2022-09-12T00:24:26.365Z,101328.56
2022-09-12T00:26:54.339Z,101319.75
2022-09-12T00:29:22.990Z,101330.19
2022-09-12T00:31:51.074Z,101328.94
2022-09-12T00:34:21.152Z,101333.50
2022-09-12T00:36:50.859Z,101318.56
2022-09-12T00:39:19.815Z,101307.97
2022-09-12T00:41:47.918Z,101291.28
2022-09-12T00:44:50.270Z,101323.53
2022-09-12T00:47:23.838Z,101327.69
2022-09-12T00:49:55.898Z,101325.41
2022-09-12T00:52:28.065Z,101329.78
2022-09-12T00:54:58.057Z,101326.88
2022-09-12T00:57:29.164Z,101329.38
2022-09-12T00:59:59.114Z,101318.38
2022-09-12T01:02:27.305Z,101312.19
2022-09-12T01:04:55.703Z,101302.19
2022-09-12T01:07:24.058Z,101287.63
2022-09-12T01:09:56.648Z,101309.03
2022-09-12T01:12:24.854Z,101306.16
2022-09-12T01:14:53.169Z,101296.19
2022-09-12T01:17:21.274Z,101295.38
2022-09-12T01:20:10.455Z,101298.91
2022-09-12T01:23:09.621Z,101290.81
2022-09-12T01:25:41.230Z,101292.03
2022-09-12T01:28:31.869Z,101289.13
2022-09-12T01:31:03.428Z,101281.44
2022-09-12T01:33:39.945Z,101279.16
2022-09-12T01:36:40.299Z,101274.38
2022-09-12T01:39:14.432Z,101283.28
2022-09-12T01:41:45.884Z,101250.06
2022-09-12T01:44:16.130Z,101252.75
2022-09-12T01:46:49.163Z,101274.16
2022-09-12T01:49:19.205Z,101266.25
2022-09-12T01:51:54.629Z,101245.25
2022-09-12T01:54:28.366Z,101267.09
2022-09-12T01:56:58.704Z,101256.25
2022-09-12T01:59:29.757Z,101261.47
2022-09-12T02:02:06.287Z,101246.91
2022-09-12T02:04:37.099Z,101259.63
2022-09-12T02:07:08.166Z,101267.69
2022-09-12T02:09:38.965Z,101251.91
2022-09-12T02:12:07.538Z,101254.41
2022-09-12T02:14:38.424Z,101264.16
2022-09-12T02:17:09.946Z,101232.56
2022-09-12T02:19:40.575Z,101262.13
2022-09-12T02:22:08.704Z,101263.97
2022-09-12T02:24:39.387Z,101231.75
2022-09-12T02:27:11.962Z,101237.56
2022-09-12T02:29:40.011Z,101250.06
2022-09-12T02:32:14.019Z,101240.13
2022-09-12T02:34:46.358Z,101235.78
2022-09-12T02:37:20.194Z,101236.81
2022-09-12T02:39:48.266Z,101241.38
2022-09-12T02:42:19.117Z,101225.41
2022-09-12T02:44:47.269Z,101226.44
2022-09-12T02:47:19.650Z,101218.16
2022-09-12T02:49:49.040Z,101217.31
2022-09-12T02:52:17.107Z,101204.03
2022-09-12T02:54:45.089Z,101203.19
2022-09-12T02:57:23.268Z,101199.88
2022-09-12T02:59:52.579Z,101209.41
2022-09-12T03:02:29.920Z,101200.66
2022-09-12T03:05:17.974Z,101196.31
2022-09-12T03:08:25.216Z,101194.03
2022-09-12T03:11:05.573Z,101191.34
2022-09-12T03:13:40.510Z,101185.75
2022-09-12T03:16:14.185Z,101189.88
2022-09-12T03:18:51.646Z,101166.06
2022-09-12T03:21:24.143Z,101175.38
2022-09-12T03:24:05.497Z,101178.09
2022-09-12T03:26:37.602Z,101161.69
2022-09-12T03:29:05.667Z,101151.56
2022-09-12T03:31:33.883Z,101143.00
2022-09-12T03:34:03.313Z,101152.78
2022-09-12T03:36:32.068Z,101156.31
2022-09-12T03:39:00.124Z,101154.63
2022-09-12T03:41:29.387Z,101133.41
2022-09-12T03:43:58.834Z,101155.66
2022-09-12T03:46:26.921Z,101150.09
2022-09-12T03:48:54.912Z,101139.28
2022-09-12T03:51:24.403Z,101160.03
2022-09-12T03:53:53.776Z,101153.38
2022-09-12T03:56:22.055Z,101152.97
2022-09-12T03:58:50.082Z,101146.34
2022-09-12T04:01:19.031Z,101154.63
2022-09-12T04:03:49.335Z,101147.19
2022-09-12T04:06:19.768Z,101143.84
2022-09-12T04:08:53.662Z,101139.31
2022-09-12T04:11:22.157Z,101154.63
2022-09-12T04:13:50.165Z,101145.09
2022-09-12T04:16:19.801Z,101149.88
2022-09-12T04:18:47.942Z,101114.81
2022-09-12T04:21:17.539Z,101147.19
2022-09-12T04:23:53.733Z,101145.94
2022-09-12T04:26:21.926Z,101144.06
2022-09-12T04:28:59.166Z,101137.66
2022-09-12T04:31:27.393Z,101144.50
2022-09-12T04:34:00.510Z,101153.81
2022-09-12T04:36:30.042Z,101140.34
2022-09-12T04:39:00.335Z,101136.00
2022-09-12T04:41:29.153Z,101142.00
2022-09-12T04:44:02.335Z,101139.31
2022-09-12T04:46:33.497Z,101133.72
2022-09-12T04:49:03.883Z,101134.56
2022-09-12T04:51:35.428Z,101122.72
2022-09-12T04:54:27.723Z,101131.03
2022-09-12T04:56:56.033Z,101135.59
2022-09-12T04:59:24.078Z,101127.72
2022-09-12T05:01:52.311Z,101127.91
2022-09-12T05:04:21.630Z,101143.03
2022-09-12T05:06:49.693Z,101137.25
2022-09-12T05:09:17.865Z,101131.88
2022-09-12T05:12:03.741Z,101123.97
2022-09-12T05:14:33.168Z,101130.63
2022-09-12T05:17:01.803Z,101108.00
2022-09-12T05:19:31.253Z,101132.25
2022-09-12T05:21:59.339Z,101136.84
2022-09-12T05:24:27.580Z,101127.91
2022-09-12T05:26:57.064Z,101136.00
2022-09-12T05:29:26.244Z,101131.44
2022-09-12T05:31:56.177Z,101123.53
2022-09-12T05:34:24.618Z,101107.78
2022-09-12T05:36:52.702Z,101110.50
2022-09-12T05:39:20.754Z,101133.13
2022-09-12T05:41:48.863Z,101129.59
2022-09-12T05:44:18.406Z,101133.13
2022-09-12T05:46:48.727Z,101131.44
2022-09-12T05:49:16.842Z,101126.47
2022-09-12T05:51:46.270Z,101145.97
2022-09-12T05:54:15.669Z,101140.56
2022-09-12T05:56:44.333Z,101133.53
2022-09-12T05:59:13.631Z,101131.25
2022-09-12T06:01:43.439Z,101129.38
2022-09-12T06:04:13.690Z,101137.91
2022-09-12T06:06:43.528Z,101110.69
2022-09-12T06:09:13.200Z,101130.88
2022-09-12T06:11:45.714Z,101125.69
2022-09-12T06:14:14.936Z,101132.75
2022-09-12T06:16:44.511Z,101126.94
2022-09-12T06:19:16.137Z,101122.38
2022-09-12T06:21:44.268Z,101124.88
2022-09-12T06:24:15.112Z,101134.44
2022-09-12T06:26:45.442Z,101136.13
2022-09-12T06:29:13.565Z,101129.44
2022-09-12T06:32:11.361Z,101135.69
2022-09-12T06:34:39.523Z,101138.81
2022-09-12T06:37:24.598Z,101146.72
2022-09-12T06:39:59.262Z,101138.63
2022-09-12T06:42:27.353Z,101143.63
2022-09-12T06:44:58.886Z,101145.28
2022-09-12T06:47:31.742Z,101143.22
2022-09-12T06:50:05.105Z,101143.84
2022-09-12T06:52:33.204Z,101125.56
2022-09-12T06:55:05.948Z,101113.94
2022-09-12T06:57:36.572Z,101126.59
2022-09-12T07:00:05.691Z,101129.53
2022-09-12T07:02:35.675Z,101123.72
2022-09-12T07:05:04.423Z,101126.22
2022-09-12T07:07:34.390Z,101122.06
2022-09-12T07:10:02.516Z,101110.03
2022-09-12T07:12:30.568Z,101119.16
2022-09-12T07:14:58.730Z,101112.50
2022-09-12T07:17:47.076Z,101124.78
2022-09-12T07:20:15.479Z,101129.53
2022-09-12T07:22:44.363Z,101121.66
2022-09-12T07:25:12.436Z,101122.03
2022-09-12T07:27:48.121Z,101114.78
2022-09-12T07:30:18.956Z,101114.56
2022-09-12T07:32:48.381Z,101117.47
2022-09-12T07:35:19.727Z,101116.84
2022-09-12T07:37:47.909Z,101115.78
2022-09-12T07:40:16.657Z,101105.59
2022-09-12T07:42:59.631Z,101101.03
2022-09-12T07:45:31.197Z,101092.91
2022-09-12T07:48:14.231Z,101112.38
2022-09-12T07:53:34.752Z,101106.53
2022-09-12T07:56:11.272Z,101118.13
2022-09-12T07:58:40.448Z,101106.47
2022-09-12T08:01:09.707Z,101116.88
2022-09-12T08:03:41.495Z,101114.56
2022-09-12T08:06:10.645Z,101111.44
2022-09-12T08:08:39.820Z,101108.94
2022-09-12T08:11:25.412Z,101080.91
2022-09-12T08:14:05.312Z,101105.38
2022-09-12T08:16:33.501Z,101104.72
2022-09-12T08:19:03.084Z,101097.22
2022-09-12T08:21:36.334Z,101101.38
2022-09-12T08:24:13.060Z,101085.16
2022-09-12T08:26:41.280Z,101100.72
2022-09-12T08:29:09.543Z,101084.72
2022-09-12T08:31:44.917Z,101087.16
2022-09-12T08:34:19.735Z,101091.09
2022-09-12T08:36:48.046Z,101090.44
2022-09-12T08:39:16.097Z,101112.47
2022-09-12T08:41:45.682Z,101105.72
2022-09-12T08:44:32.493Z,101104.69
2022-09-12T08:47:15.134Z,101088.28
2022-09-12T08:49:56.408Z,101116.06
2022-09-12T08:52:29.175Z,101112.94
2022-09-12T08:54:59.654Z,101106.44
2022-09-12T08:57:29.182Z,101103.72
2022-09-12T08:59:57.548Z,101109.34
2022-09-12T09:02:40.609Z,101100.31
2022-09-12T09:05:15.275Z,101101.03
2022-09-12T09:08:00.684Z,101111.84
2022-09-12T09:10:31.643Z,101107.97
2022-09-12T09:13:09.029Z,101110.06
2022-09-12T09:15:47.002Z,101098.63
2022-09-12T09:18:31.415Z,101097.81
2022-09-12T09:21:13.593Z,101110.50
2022-09-12T09:23:42.789Z,101118.47
2022-09-12T09:26:17.346Z,101119.25
2022-09-12T09:28:47.685Z,101112.09
2022-09-12T09:31:16.335Z,101106.03
2022-09-12T09:33:45.222Z,101107.22
2022-09-12T09:36:18.387Z,101098.84
2022-09-12T09:38:49.444Z,101098.50
2022-09-12T09:41:24.411Z,101098.59
2022-09-12T09:43:52.492Z,101107.94
2022-09-12T09:46:20.544Z,101102.16
2022-09-12T09:48:49.567Z,101113.50
2022-09-12T09:51:22.092Z,101107.34
2022-09-12T09:53:53.496Z,101095.19
2022-09-12T09:56:29.072Z,101092.81
2022-09-12T09:58:57.131Z,101086.56
2022-09-12T10:01:32.431Z,101094.94
2022-09-12T10:04:00.749Z,101089.50
2022-09-12T10:06:34.379Z,101083.50
2022-09-12T10:09:08.058Z,101094.00
2022-09-12T10:11:36.098Z,101095.56
2022-09-12T10:14:05.045Z,101098.03
2022-09-12T10:16:34.628Z,101103.47
2022-09-12T10:19:03.715Z,101091.06
2022-09-12T10:21:34.838Z,101090.69
2022-09-12T10:24:18.855Z,101098.97
2022-09-12T10:26:51.391Z,101108.44
2022-09-12T10:29:24.593Z,101101.22
2022-09-12T10:31:54.150Z,101101.09
2022-09-12T10:34:26.076Z,101107.22
2022-09-12T10:36:56.557Z,101111.22
2022-09-12T10:39:24.592Z,101115.69
2022-09-12T10:41:53.560Z,101108.13
2022-09-12T10:44:27.159Z,101100.66
2022-09-12T10:46:55.524Z,101097.00
2022-09-12T10:49:25.723Z,101098.97
2022-09-12T10:51:55.519Z,101099.53
2022-09-12T10:54:24.957Z,101097.69
2022-09-12T10:57:25.865Z,101093.88
2022-09-12T11:00:19.863Z,101096.53
2022-09-12T11:02:52.304Z,101104.59
2022-09-12T11:05:28.272Z,101090.72
2022-09-12T11:07:59.900Z,101085.47
2022-09-12T11:10:37.982Z,101103.47
2022-09-12T11:13:18.371Z,101101.16
2022-09-12T11:15:54.231Z,101089.34
2022-09-12T11:18:30.808Z,101098.00
2022-09-12T11:21:09.498Z,101103.44
2022-09-12T11:23:59.378Z,101101.31
2022-09-12T11:26:39.567Z,101098.00
2022-09-12T11:29:11.047Z,101096.88
2022-09-12T11:32:00.995Z,101097.63
2022-09-12T11:34:33.883Z,101094.53
2022-09-12T11:37:11.016Z,101104.53
2022-09-12T11:39:42.490Z,101102.56
2022-09-12T11:42:15.919Z,101098.91
2022-09-12T11:44:46.234Z,101092.72
2022-09-12T11:47:15.268Z,101105.63
2022-09-12T11:49:47.201Z,101100.63
2022-09-12T11:52:16.669Z,101097.66
2022-09-12T11:54:52.780Z,101094.34
2022-09-12T11:57:24.795Z,101092.31
2022-09-12T11:59:54.065Z,101086.13
2022-09-12T12:02:26.856Z,101091.41
2022-09-12T12:05:05.519Z,101087.25
2022-09-12T12:07:43.396Z,101083.91
2022-09-12T12:10:26.340Z,101084.13
2022-09-12T12:12:55.171Z,101080.69
2022-09-12T12:15:25.150Z,101074.03
2022-09-12T12:18:02.642Z,101086.91
2022-09-12T12:20:30.607Z,101083.41
2022-09-12T12:22:58.732Z,101086.38
2022-09-12T12:25:40.086Z,101088.97
2022-09-12T12:28:08.209Z,101093.34
2022-09-12T12:31:05.871Z,101085.34
2022-09-12T12:33:53.813Z,101088.22
2022-09-12T12:36:35.010Z,101088.09
2022-09-12T12:39:31.243Z,101075.41
2022-09-12T12:42:00.826Z,101073.38
2022-09-12T12:44:55.590Z,101074.63
2022-09-12T12:47:29.002Z,101087.06
2022-09-12T12:49:58.561Z,101082.28
2022-09-12T12:52:26.762Z,101082.97
2022-09-12T12:54:58.869Z,101079.03
2022-09-12T12:58:04.707Z,101069.59
2022-09-12T13:00:36.491Z,101067.88
2022-09-12T13:03:19.955Z,101068.94
2022-09-12T13:05:49.671Z,101065.66
2022-09-12T13:08:31.381Z,101058.22
2022-09-12T13:11:01.609Z,101065.81
2022-09-12T13:13:37.995Z,101066.63
2022-09-12T13:16:10.131Z,101058.75
2022-09-12T13:18:42.707Z,101048.56
2022-09-12T13:21:11.610Z,101039.50
2022-09-12T13:23:39.905Z,101028.25
2022-09-12T13:26:26.489Z,101052.13
2022-09-12T13:29:18.004Z,101039.75
2022-09-12T13:31:47.621Z,101048.16
2022-09-12T13:34:20.119Z,101032.50
2022-09-12T13:37:22.331Z,101022.03
2022-09-12T13:39:55.541Z,101034.63
2022-09-12T13:42:48.682Z,101029.69
2022-09-12T13:45:23.789Z,101036.69
2022-09-12T13:47:58.402Z,101032.84
2022-09-12T13:50:27.877Z,101029.53
2022-09-12T13:52:57.210Z,101036.69
2022-09-12T13:55:31.169Z,101042.75
2022-09-12T13:58:01.726Z,101029.13
2022-09-12T14:00:32.365Z,101033.81
2022-09-12T14:03:19.159Z,101035.13
2022-09-12T14:19:26.142Z,101005.94
2022-09-12T14:43:28.091Z,101016.41
2022-09-12T14:50:22.004Z,101004.53
2022-09-12T14:53:36.684Z,101004.03
2022-09-12T15:06:20.144Z,100996.66
2022-09-12T15:09:36.094Z,101002.09
2022-09-12T15:12:41.313Z,100996.66
2022-09-12T15:15:20.231Z,100960.94
2022-09-12T15:19:11.196Z,100995.34
2022-09-12T15:21:47.248Z,100991.72
2022-09-12T15:24:22.279Z,100987.94
2022-09-12T15:26:54.071Z,100978.66
2022-09-12T15:29:51.354Z,100982.81
2022-09-12T15:35:45.566Z,100976.22
2022-09-12T15:38:38.158Z,100965.34
2022-09-12T15:50:32.475Z,100964.44
2022-09-12T15:53:25.584Z,100938.66
2022-09-12T15:57:11.937Z,100958.25
2022-09-12T15:59:41.590Z,100947.88
2022-09-12T16:10:05.353Z,100946.94
2022-09-12T16:12:46.425Z,100947.75
2022-09-12T16:24:09.648Z,100928.06
2022-09-12T16:27:52.410Z,100930.13
2022-09-12T16:31:00.353Z,100924.06
2022-09-12T16:41:17.844Z,100922.94
2022-09-12T16:43:52.479Z,100918.00
2022-09-12T17:15:51.463Z,100944.78
2022-09-12T17:50:14.535Z,100955.25
2022-09-12T18:07:56.428Z,100914.06
2022-09-12T18:27:59.856Z,100908.84
2022-09-12T19:44:06.767Z,101002.50
2022-09-12T19:46:36.399Z,101001.81
2022-09-12T19:49:19.335Z,101017.16
2022-09-12T20:02:28.277Z,101020.72
2022-09-12T20:23:26.243Z,101063.44
2022-09-12T20:45:40.645Z,101059.25
2022-09-12T20:49:13.729Z,101072.81
2022-09-12T20:52:21.461Z,101075.91
2022-09-12T21:04:31.120Z,101076.81
2022-09-12T22:11:48.098Z,101046.59
2022-09-12T22:15:44.360Z,101051.97
2022-09-12T22:18:12.639Z,101044.94
2022-09-12T23:10:21.017Z,101019.72
2022-09-12T23:31:12.004Z,101026.34
2022-09-12T23:33:40.481Z,101018.22
2022-09-12T23:58:54.807Z,101007.00
